createdAt,value
2022-09-27T00:09:20.359Z,1203.3501
2022-09-27T00:24:22.801Z,647.47418
2022-09-27T00:39:25.159Z,460.68552
2022-09-27T00:54:27.554Z,358.31097
2022-09-27T01:09:29.884Z,263.12057
2022-09-27T01:24:32.185Z,145.47964
2022-09-27T01:39:34.535Z,50.28926
2022-09-27T01:54:36.795Z,8.98022
2022-09-27T02:09:39.118Z,0
2022-09-27T02:24:41.479Z,0
2022-09-27T02:39:43.766Z,0
2022-09-27T02:54:46.205Z,0
2022-09-27T03:09:48.461Z,0
2022-09-27T03:24:50.714Z,0
2022-09-27T03:39:53.255Z,0
2022-09-27T03:55:01.154Z,0
2022-09-27T04:10:04.431Z,0
2022-09-27T04:25:06.659Z,0
2022-09-27T04:40:09.210Z,0
2022-09-27T04:55:11.731Z,0
2022-09-27T05:10:14.000Z,0
2022-09-27T05:25:16.285Z,0
2022-09-27T05:40:39.655Z,0
2022-09-27T05:55:43.413Z,0
2022-09-27T06:10:45.685Z,0
2022-09-27T06:25:48.051Z,0
2022-09-27T06:40:50.309Z,0
2022-09-27T06:55:52.594Z,0
2022-09-27T07:10:54.877Z,0
2022-09-27T07:25:57.125Z,0
2022-09-27T07:40:59.429Z,0
2022-09-27T07:56:01.758Z,0
2022-09-27T08:11:04.052Z,0
2022-09-27T08:26:06.395Z,0
2022-09-27T08:41:08.886Z,0
2022-09-27T08:56:11.370Z,0
2022-09-27T09:11:13.613Z,0
2022-09-27T09:26:15.938Z,0
2022-09-27T09:41:18.409Z,0
2022-09-27T09:56:20.726Z,0
2022-09-27T10:11:23.140Z,0
2022-09-27T10:26:25.419Z,0
2022-09-27T10:41:27.720Z,0
2022-09-27T10:56:29.992Z,0
2022-09-27T11:11:32.321Z,0
2022-09-27T11:26:34.605Z,0
2022-09-27T11:41:36.854Z,0
2022-09-27T11:56:39.208Z,0
2022-09-27T12:11:41.492Z,0
2022-09-27T12:26:43.769Z,0
2022-09-27T12:41:46.072Z,0
2022-09-27T12:56:48.387Z,0
2022-09-27T13:11:50.667Z,0.89802
2022-09-27T13:26:53.012Z,14.36836
2022-09-27T13:41:55.349Z,70.04575
2022-09-27T13:56:57.645Z,199.36099
2022-09-27T14:11:59.971Z,333.16635
2022-09-27T14:27:02.285Z,502.89258
2022-09-27T14:42:04.590Z,752.54285
2022-09-27T14:57:06.871Z,1531.1283
2022-09-27T15:12:09.318Z,2070.83984
2022-09-27T15:27:11.582Z,3076.625
2022-09-27T15:42:13.905Z,2011.57031
2022-09-27T15:57:16.241Z,8141.47168
2022-09-27T16:12:18.574Z,14252.51465
2022-09-27T16:27:20.905Z,8689.26562
2022-09-27T16:42:23.180Z,3466.3667
2022-09-27T16:57:25.469Z,2479.43994
2022-09-27T17:12:27.856Z,2430.94678
2022-09-27T17:27:30.226Z,2367.18726
2022-09-27T17:42:32.513Z,3783.36865
2022-09-27T17:57:34.781Z,4028.52881
2022-09-27T18:12:37.062Z,2824.28076
2022-09-27T18:27:39.383Z,3022.74365
2022-09-27T18:42:41.741Z,2538.70947
2022-09-27T18:57:44.058Z,2976.04639
2022-09-27T19:12:46.344Z,2589.89673
2022-09-27T19:27:48.645Z,2971.5564
2022-09-27T19:42:50.956Z,6731.57666
2022-09-27T19:57:53.444Z,7073.72314
2022-09-27T20:12:55.772Z,7465.26074
2022-09-27T20:27:58.098Z,3358.604
2022-09-27T20:43:00.525Z,6443.31104
2022-09-27T20:58:02.780Z,4450.59961
2022-09-27T21:13:04.993Z,2611.44946
2022-09-27T21:28:07.387Z,2303.42773
2022-09-27T21:43:09.705Z,2087.00415
2022-09-27T21:58:12.208Z,1970.26135
2022-09-27T22:13:14.533Z,2487.52222
2022-09-27T22:28:16.823Z,3148.4668
2022-09-27T22:43:19.265Z,1410.79333
2022-09-27T22:58:21.624Z,4253.93262
2022-09-27T23:13:23.920Z,4874.46582
2022-09-27T23:28:26.283Z,4983.12646
2022-09-27T23:43:28.591Z,5018.14941
2022-09-27T23:58:31.126Z,1607.46021
